Terminal Aerodrome Forecast
Issued by NWS St Louis, MO

Home | Current Version | Previous Version | Graphics & Text | Print | Product List | Glossary Off
Versions: 1 2 3 4 5 6 7 8 9 10 11 12 13 14 15 16 17 18 19 20 21 22 23 24 25 26 27 28

000
FTUS43 KLSX 310800 AAA
TAFSTL
TAF AMD
KSTL 310850Z 3109/0112 18006KT P6SM SCT050 BKN120
     FM311000 VRB04KT 5SM BR BKN015
     FM311400 22008KT P6SM SCT030
     FM010000 17008KT P6SM SCT250=

USA.gov is the U.S. government's official web portal to all federal, state and local government web resources and services.